• Join FlightAware (Why Join?)
  • Login
  • US Flag 
05:26PM EDT


 

Airport Tracker/Info


-or-


 

Live Flight TrackerFlight Track Log ✈ USC105 ✈ 03-Jul-2013 ✈ KYIP - KLCK

Flight Track Log - Related Links

Times and Time Zones

All times are in EDT time to prevent confusion due to time zone crossing. See the USC105 flight status page for this flight to view local times or setup timezone preferences in your user account.

Time Position Orientation Groundspeed Altitude Reporting Facility
EDT Latitude Longitude Course Direction KTS MPH feet Rate Location/Type
06:58AM 42.2103 -83.5883 212° Southwest 106 122 3,300  Level Cleveland Center
06:59AM 42.1847 -83.6097 212° Southwest 105 121 4,700 1,320 Climbing Cleveland Center
07:00AM 42.1553 -83.6222 197° South 108 124 6,100 120 Climbing Cleveland Center
07:02AM 42.1307 -83.5603 118° Southeast  Level FlightAware Approximate
07:09AM 41.8331 -83.4765 167° South  Level Estimated
07:10AM 41.7906 -83.4646 170° South  Level Estimated
07:11AM 41.7484 -83.4509 166° South  Level FlightAware Approximate
07:12AM 41.7062 -83.4372 166° South  Level FlightAware Approximate
07:13AM 41.6640 -83.4236 166° South  Level FlightAware Approximate
07:13AM 41.5786 -83.4533 166° South 174 200 7,000  Level Indianapolis Center
07:14AM 41.6218 -83.4100 166° South  Level FlightAware Approximate
07:14AM 41.5300 -83.4386 167° South 175 201 7,000  Level Indianapolis Center
07:15AM 41.5796 -83.3963 166° South  Level FlightAware Approximate
07:15AM 41.4822 -83.4231 166° South 175 201 7,000  Level Indianapolis Center
07:16AM 41.5374 -83.3828 166° South  Level FlightAware Approximate
07:16AM 41.4344 -83.4081 167° South 176 203 7,000  Level Indianapolis Center
07:17AM 41.4951 -83.3692 166° South  Level FlightAware Approximate
07:17AM 41.3858 -83.3931 167° South 177 204 7,000  Level Indianapolis Center
07:18AM 41.4529 -83.3556 166° South  Level FlightAware Approximate
07:18AM 41.3378 -83.3794 168° South 175 201 7,000  Level Indianapolis Center
07:19AM 41.2894 -83.3644 167° South 177 204 7,000  Level Indianapolis Center
07:20AM 41.2342 -83.3478 167° South 174 200 7,000 -60 Level Indianapolis Center
07:21AM 41.1853 -83.3328 167° South 176 203 6,900 -60 Descending Indianapolis Center
07:22AM 41.1367 -83.3186 168° South 178 205 6,900  Level Indianapolis Center
07:23AM 41.0886 -83.3036 167° South 176 203 6,900  Level Indianapolis Center
07:24AM 41.0403 -83.2897 168° South 176 203 6,900  Level Indianapolis Center
07:25AM 40.9922 -83.2744 167° South 177 204 7,000  Climbing Indianapolis Center
07:26AM 40.9436 -83.2606 168° South 177 204 6,900 -60 Descending Indianapolis Center
07:27AM 40.8950 -83.2456 167° South 178 205 6,900  Level Indianapolis Center
07:28AM 40.8467 -83.2317 168° South 176 203 6,900  Level Indianapolis Center
07:29AM 40.7983 -83.2164 167° South 177 204 6,900  Level Indianapolis Center
07:30AM 40.7506 -83.2022 167° South 179 206 7,000  Climbing Indianapolis Center
07:31AM 40.7017 -83.1875 167° South 178 205 6,900 -60 Descending Indianapolis Center
07:33AM 40.6528 -83.1725 167° South 179 206 6,900  Level Indianapolis Center
07:34AM 40.6033 -83.1575 167° South 177 204 7,000 60 Climbing Indianapolis Center
07:35AM 40.5547 -83.1431 167° South 178 205 7,100  Climbing Indianapolis Center
07:36AM 40.4994 -83.1275 168° South 174 200 7,000 -60 Descending Indianapolis Center
07:37AM 40.4514 -83.1131 167° South 175 201 7,000  Level Indianapolis Center
07:37AM 40.4200 -83.1092 175° South 176 203 7,000  Level Indianapolis Center
07:38AM 40.3714 -83.0928 166° South 178 205 7,000  Level Indianapolis Center
07:39AM 40.3222 -83.0794 168° South 180 207 7,100  Climbing Indianapolis Center
07:40AM 40.2669 -83.0622 167° South 180 207 7,000 -360 Descending Indianapolis Center
07:41AM 40.2158 -83.0483 168° South 186 214 6,400 -540 Descending Indianapolis Center
07:42AM 40.1628 -83.0314 166° South 194 223 6,000 -180 Descending Indianapolis Center
07:44AM 40.1119 -83.0150 166° South 182 209 6,100 -240 Climbing Indianapolis Center
07:45AM 40.0589 -82.9983 166° South 181 208 5,600 -840 Descending Indianapolis Center
07:46AM 39.9967 -82.9800 167° South 193 222 4,300 -720 Descending Indianapolis Center
07:47AM 39.9506 -82.9672 168° South 186 214 4,100 -120 Descending Indianapolis Center
07:48AM 39.9097 -82.9553 167° South 168 193 4,100 -60 Level Indianapolis Center
07:48AM 39.8825 -82.9100 128° Southeast 175 201 4,000 -300 Descending Indianapolis Center
07:49AM 39.8603 -82.8547 118° Southeast 175 201 3,600 -480 Descending Indianapolis Center
07:50AM 39.8422 -82.8000 113° Southeast 194 223 3,100 -540 Descending Indianapolis Center
07:51AM 39.8569 -82.8144 323° Northwest 210 242 2,900 -600 Descending Indianapolis Center
07:52AM 39.8567 -82.8747 270° West 177 204 2,200 -840 Descending Indianapolis Center
07:53AM 39.8344 -82.9033 225° Southwest 129 148 1,300 -900 Descending Indianapolis Center